Charlton, Canada
Current Conditions -  °F | °C
As of 7:00 PM on Friday 24 Oct 2014 (Local Time) from CYXR Reporting Station
Overcast Overcast  
Wind Chill: 50°   Ceiling: 2500
Heat Index: 50°   Visibility: NA
Dew Point: 43°   Wind: 6mph
Humidity: 76%   Direction: 210°SSW
Pressure: 29.85"   Gusts: NA
Location:  47.82°N, 80°W
Report Text: CYXR 242300Z AUTO 21005KT OVC025 10/06 A2985 RMK WX MISG VIS MISG PCPN MISG SLP120
Loading
Personal Weather Stations






























Interactive Weather Map
Tropical Storm Tracking
New forecast layout! Learn more

10-Day Weather Forecast

Advertisements
Track Severe Weather on mobile